Weather at Daniel K Inouye International Airport

Public forecast

Using degrees Fahrenheit for public forecast. Weather courtesy of forecast.io.

Current aviation weather report (METAR) for Daniel K Inouye International Airport

Retrieved 2021/07/29 04:53 UTC (7 minutes ago):

PHNL 290453Z 06014KT 10SM SCT024 BKN048 BKN065 27/19 A3002

Aviation forecast (TAF) for Daniel K Inouye International Airport

Retrieved 2021-07-29 03:34 UTC (1 hour ago):

TAF PHNL 290232Z 2903/3006 06014G22KT P6SM FEW025 BKN035 BKN150 FM290800 06010KT P6SM FEW025 SCT035 BKN150 FM292200 06014G22KT P6SM FEW012 SCT035 SCT150